Time;durP1;ratioP1;P1;durP2;ratioP2;P2;SDS_P1;SDS_P2;PMS_P1;PMS_P2;Temp;Humidity;BMP_temperature;BMP_pressure;BME280_temperature;BME280_humidity;BME280_pressure;Samples;Min_cycle;Max_cycle;Signal;HPM_P1;HPM_P2
2023/10/11 00:00:56;;;;;;;7.83;1.20;;;;;;;13.95;100.00;102323.25;2056619;28;20234;-68
2023/10/11 00:02:00;;;;;;;1.57;0.90;;;;;;;13.99;100.00;102325.97;2055950;28;20575;-68
2023/10/11 00:04:23;;;;;;;3.80;0.80;;;;;;;13.93;100.00;102339.56;2056554;28;20441;-68
2023/10/11 00:05:39;;;;;;;3.53;0.90;;;;;;;13.95;100.00;102339.97;2056796;28;20493;-68
2023/10/11 00:06:39;;;;;;;2.73;0.93;;;;;;;13.96;100.00;102333.19;2056387;28;20481;-68
2023/10/11 00:07:42;;;;;;;1.97;0.87;;;;;;;13.90;100.00;102334.03;2056203;28;20460;-67
2023/10/11 00:08:43;;;;;;;2.37;0.93;;;;;;;13.97;100.00;102340.31;2056328;28;20182;-68
2023/10/11 00:09:44;;;;;;;5.33;0.80;;;;;;;13.97;100.00;102345.09;2056014;28;20485;-68
2023/10/11 00:10:49;;;;;;;1.93;0.90;;;;;;;13.94;100.00;102349.50;2056613;28;20249;-68
2023/10/11 00:11:49;;;;;;;4.27;0.90;;;;;;;13.91;99.27;102343.97;2055673;28;20190;-68
2023/10/11 00:12:58;;;;;;;2.90;0.70;;;;;;;13.65;100.00;102313.97;2056480;28;20454;-68
2023/10/11 00:13:58;;;;;;;2.40;0.70;;;;;;;13.83;100.00;102348.06;2056296;28;20170;-68
2023/10/11 00:14:59;;;;;;;1.63;0.70;;;;;;;13.82;100.00;102349.22;2056601;28;20513;-68
2023/10/11 00:16:09;;;;;;;1.77;0.77;;;;;;;13.86;100.00;102350.81;2058418;28;20187;-68
2023/10/11 00:17:09;;;;;;;2.23;1.00;;;;;;;13.86;100.00;102350.81;2055983;28;20594;-68
2023/10/11 00:18:10;;;;;;;1.97;0.90;;;;;;;13.86;100.00;102341.63;2056415;28;20464;-68
2023/10/11 00:19:15;;;;;;;5.07;1.10;;;;;;;13.87;100.00;102341.22;2055917;28;20199;-68
2023/10/11 00:20:19;;;;;;;1.77;0.97;;;;;;;13.73;100.00;102332.22;2056097;28;20202;-68
2023/10/11 00:21:35;;;;;;;4.03;1.00;;;;;;;13.73;100.00;102335.78;2055914;28;20454;-68
2023/10/11 00:22:35;;;;;;;2.00;0.80;;;;;;;13.83;100.00;102346.03;2056429;28;20458;-68
2023/10/11 00:23:39;;;;;;;4.90;0.87;;;;;;;13.77;100.00;102341.31;2056108;28;20446;-68
2023/10/11 00:24:39;;;;;;;3.60;1.00;;;;;;;13.75;100.00;102350.13;2056412;28;20209;-68
2023/10/11 00:25:39;;;;;;;1.70;1.10;;;;;;;13.74;100.00;102339.38;2056323;28;20512;-68
2023/10/11 00:26:40;;;;;;;3.50;0.93;;;;;;;13.71;100.00;102338.22;2056063;28;20209;-68
2023/10/11 00:27:42;;;;;;;3.07;0.60;;;;;;;13.72;100.00;102342.56;2056653;28;20182;-68
2023/10/11 00:28:43;;;;;;;1.77;1.10;;;;;;;13.73;100.00;102343.38;2056265;28;20198;-68
2023/10/11 00:29:44;;;;;;;1.73;1.10;;;;;;;13.72;100.00;102337.00;2055839;28;20476;-68
2023/10/11 00:30:47;;;;;;;2.93;1.33;;;;;;;13.68;100.00;102338.25;2055913;28;20452;-68
2023/10/11 00:31:51;;;;;;;3.57;1.40;;;;;;;13.06;100.00;102248.50;2054841;28;20221;-68
2023/10/11 00:32:52;;;;;;;1.10;0.67;;;;;;;13.65;97.54;102339.06;2056097;28;20592;-69
2023/10/11 00:33:53;;;;;;;1.50;1.13;;;;;;;13.65;98.62;102341.84;2056349;28;21103;-69
2023/10/11 00:34:54;;;;;;;3.30;1.00;;;;;;;13.62;97.39;102342.69;2055916;28;20707;-68
2023/10/11 00:35:55;;;;;;;2.40;1.17;;;;;;;13.63;99.05;102342.25;2056030;28;20189;-68
2023/10/11 00:36:55;;;;;;;1.67;1.00;;;;;;;13.66;100.00;102349.78;2056507;28;20194;-68
2023/10/11 00:37:56;;;;;;;5.53;1.43;;;;;;;13.56;100.00;102328.41;2056275;28;20248;-68
2023/10/11 00:38:59;;;;;;;2.83;1.20;;;;;;;13.22;99.46;102285.72;2055684;28;20239;-69
2023/10/11 00:40:02;;;;;;;2.13;1.00;;;;;;;13.59;99.02;102343.50;2063616;28;21019;-68
2023/10/11 00:41:17;;;;;;;3.57;1.30;;;;;;;13.56;99.48;102347.91;2063002;28;20650;-68
2023/10/11 00:42:18;;;;;;;4.97;1.60;;;;;;;13.61;100.00;102353.03;2056152;28;20454;-68
2023/10/11 00:43:41;;;;;;;2.63;1.37;;;;;;;13.63;100.00;102350.59;2055853;28;20826;-68
2023/10/11 00:44:42;;;;;;;4.83;1.40;;;;;;;13.64;100.00;102348.63;2055995;28;20611;-68
2023/10/11 00:45:43;;;;;;;1.73;1.10;;;;;;;13.45;100.00;102324.13;2056006;28;20469;-68
2023/10/11 00:46:56;;;;;;;2.10;1.20;;;;;;;13.60;100.00;102356.22;2055439;28;20500;-69
2023/10/11 00:47:59;;;;;;;6.07;2.10;;;;;;;13.59;98.71;102361.00;2063581;28;20200;-68
2023/10/11 00:49:11;;;;;;;2.80;1.57;;;;;;;13.58;99.09;102355.84;2062841;28;20976;-68
2023/10/11 00:50:15;;;;;;;1.93;1.40;;;;;;;13.57;99.30;102357.06;2056134;28;20488;-68
2023/10/11 00:51:16;;;;;;;3.70;1.40;;;;;;;13.55;99.91;102353.88;2055644;28;20960;-70
2023/10/11 00:52:17;;;;;;;5.37;1.40;;;;;;;13.54;98.52;102355.09;2056109;28;21254;-69
2023/10/11 00:53:18;;;;;;;3.50;1.80;;;;;;;13.40;98.61;102344.84;2056250;28;20182;-68
2023/10/11 00:54:21;;;;;;;3.20;1.47;;;;;;;13.48;98.20;102357.50;2056113;28;20319;-68
2023/10/11 00:55:23;;;;;;;5.57;1.70;;;;;;;13.49;99.20;102361.09;2056511;28;20439;-68
2023/10/11 00:56:29;;;;;;;1.83;1.40;;;;;;;13.50;100.00;102362.66;2056397;28;20502;-68
2023/10/11 00:57:32;;;;;;;2.43;1.67;;;;;;;13.48;100.00;102360.28;2056344;28;20401;-68
2023/10/11 00:58:33;;;;;;;3.37;1.60;;;;;;;13.49;100.00;102361.09;2056148;28;20487;-68
2023/10/11 00:59:35;;;;;;;6.23;1.60;;;;;;;13.46;100.00;102367.47;2055783;28;20277;-68
2023/10/11 01:00:36;;;;;;;2.47;1.57;;;;;;;13.42;100.00;102369.50;2055746;28;20974;-69
2023/10/11 01:01:44;;;;;;;1.50;1.20;;;;;;;13.16;100.00;102323.56;2055561;28;20553;-68
2023/10/11 01:02:46;;;;;;;2.37;1.37;;;;;;;13.45;100.00;102368.69;2056247;28;20434;-68
2023/10/11 01:03:46;;;;;;;7.20;1.33;;;;;;;13.46;100.00;102376.63;2055840;28;20959;-68
2023/10/11 01:04:46;;;;;;;7.00;1.53;;;;;;;13.44;100.00;102372.66;2056221;28;20806;-68
2023/10/11 01:05:48;;;;;;;4.33;1.27;;;;;;;13.44;100.00;102372.66;2056121;28;20178;-68
2023/10/11 01:06:49;;;;;;;2.67;1.00;;;;;;;13.45;100.00;102374.25;2056459;28;20171;-68
2023/10/11 01:07:50;;;;;;;2.50;1.30;;;;;;;13.20;100.00;102337.44;2056272;28;21005;-68
2023/10/11 01:08:50;;;;;;;3.33;1.47;;;;;;;13.47;100.00;102378.22;2055847;28;20254;-68
2023/10/11 01:09:52;;;;;;;3.53;1.30;;;;;;;13.48;100.00;102381.78;2056040;28;20627;-68
2023/10/11 01:10:52;;;;;;;3.53;1.20;;;;;;;13.48;100.00;102385.34;2055876;28;20445;-68
2023/10/11 01:11:53;;;;;;;3.90;1.20;;;;;;;13.49;100.00;102389.75;2055703;28;20185;-68
2023/10/11 01:12:54;;;;;;;3.37;1.40;;;;;;;13.47;100.00;102394.91;2055937;28;20682;-68
2023/10/11 01:13:54;;;;;;;3.03;1.20;;;;;;;13.45;100.00;102396.53;2056371;28;20241;-68
2023/10/11 01:14:58;;;;;;;2.33;1.10;;;;;;;13.42;100.00;102392.56;2055937;28;20183;-68
2023/10/11 01:15:59;;;;;;;3.17;1.20;;;;;;;12.97;100.00;102334.44;2048348;29;20183;-68
2023/10/11 01:17:00;;;;;;;3.40;0.90;;;;;;;13.26;100.00;102395.06;2055448;28;20454;-68
2023/10/11 01:18:01;;;;;;;3.57;1.13;;;;;;;13.25;100.00;102393.50;2055018;28;20984;-68
2023/10/11 01:19:07;;;;;;;2.23;1.00;;;;;;;13.16;100.00;102393.16;2049039;28;20198;-69
2023/10/11 01:20:16;;;;;;;2.30;1.40;;;;;;;13.15;100.00;102394.34;2054679;28;20199;-68
2023/10/11 01:21:17;;;;;;;1.10;0.67;;;;;;;13.08;100.00;102399.19;2055851;28;20440;-68
2023/10/11 01:22:20;;;;;;;2.20;0.70;;;;;;;12.95;100.00;102384.09;2055970;28;20456;-68
2023/10/11 01:23:21;;;;;;;1.77;0.90;;;;;;;13.07;100.00;102405.94;2056271;28;20190;-68
2023/10/11 01:24:22;;;;;;;1.40;0.97;;;;;;;13.07;100.00;102408.72;2055722;28;20473;-68
2023/10/11 01:25:22;;;;;;;1.93;0.87;;;;;;;13.11;100.00;102409.50;2055957;28;20414;-68
2023/10/11 01:26:23;;;;;;;1.30;0.77;;;;;;;13.08;100.00;102413.09;2056315;28;20209;-68
2023/10/11 01:27:30;;;;;;;1.70;0.87;;;;;;;13.05;100.00;102408.31;2056273;28;20660;-68
2023/10/11 01:28:30;;;;;;;1.37;0.90;;;;;;;13.06;100.00;102418.28;2056045;28;20191;-68
2023/10/11 01:29:30;;;;;;;1.70;0.93;;;;;;;12.75;100.00;102389.38;2054682;28;21006;-68
2023/10/11 01:30:31;;;;;;;3.80;0.80;;;;;;;12.87;100.00;102418.75;2055517;28;20255;-68
2023/10/11 01:31:33;;;;;;;1.63;0.57;;;;;;;12.64;100.00;102398.97;2055764;28;20667;-68
2023/10/11 01:32:42;;;;;;;4.57;0.90;;;;;;;12.83;100.00;102426.31;2053068;28;20665;-68
2023/10/11 01:33:48;;;;;;;2.33;0.83;;;;;;;12.84;100.00;102419.53;2050849;28;20488;-68
2023/10/11 01:34:49;;;;;;;3.37;0.70;;;;;;;12.83;100.00;102431.88;2055530;28;20473;-68
2023/10/11 01:35:50;;;;;;;2.30;0.90;;;;;;;12.78;100.00;102429.50;2056039;28;20418;-68
2023/10/11 01:36:52;;;;;;;1.23;0.77;;;;;;;12.54;100.00;102395.03;2055717;28;20205;-68
2023/10/11 01:37:55;;;;;;;2.23;0.80;;;;;;;12.76;100.00;102427.13;2056502;28;20410;-68
2023/10/11 01:39:01;;;;;;;5.37;0.90;;;;;;;12.66;100.00;102416.06;2055462;28;20205;-68
2023/10/11 01:40:05;;;;;;;2.00;0.97;;;;;;;12.80;100.00;102432.69;2054734;28;20484;-68
2023/10/11 01:41:06;;;;;;;3.17;1.10;;;;;;;12.80;100.00;102438.25;2055729;28;20859;-68
2023/10/11 01:42:06;;;;;;;4.10;0.63;;;;;;;12.81;100.00;102437.84;2063026;28;20451;-68
2023/10/11 01:43:07;;;;;;;1.73;0.80;;;;;;;12.79;100.00;102442.22;2063145;28;20681;-68
2023/10/11 01:44:08;;;;;;;1.23;0.70;;;;;;;12.76;100.00;102443.81;2055801;28;20665;-68
2023/10/11 01:45:08;;;;;;;3.90;1.03;;;;;;;12.74;100.00;102454.56;2055888;28;20654;-68
2023/10/11 01:46:09;;;;;;;1.47;0.90;;;;;;;12.70;100.00;102459.34;2047948;28;20228;-69
2023/10/11 01:47:10;;;;;;;2.37;1.10;;;;;;;12.71;100.00;102455.38;2055892;28;20182;-68
2023/10/11 01:48:10;;;;;;;2.93;1.23;;;;;;;12.75;100.00;102455.38;2048258;28;20265;-68
2023/10/11 01:49:12;;;;;;;1.57;0.83;;;;;;;12.74;100.00;102462.09;2054056;28;20198;-68
2023/10/11 01:50:16;;;;;;;2.43;1.00;;;;;;;12.72;100.00;102459.75;2055642;28;20653;-68
2023/10/11 01:51:21;;;;;;;1.50;1.03;;;;;;;12.73;100.00;102463.31;2055379;28;20457;-68
2023/10/11 01:52:25;;;;;;;3.73;1.00;;;;;;;12.72;100.00;102467.28;2056080;28;20818;-68
2023/10/11 01:53:27;;;;;;;2.27;0.90;;;;;;;12.70;100.00;102466.91;2055985;28;20439;-68
2023/10/11 01:54:27;;;;;;;3.80;1.00;;;;;;;12.65;100.00;102468.09;2055759;28;20540;-68
2023/10/11 01:55:27;;;;;;;1.43;0.90;;;;;;;12.52;100.00;102455.03;2055487;28;20407;-68
2023/10/11 01:56:30;;;;;;;1.80;0.80;;;;;;;12.55;100.00;102473.72;2055989;28;20179;-68
2023/10/11 01:57:30;;;;;;;6.70;1.53;;;;;;;12.45;100.00;102463.41;2055848;28;20362;-68
2023/10/11 01:58:31;;;;;;;2.93;1.30;;;;;;;12.41;100.00;102463.41;2055994;28;20971;-68
2023/10/11 01:59:31;;;;;;;1.93;1.20;;;;;;;12.44;100.00;102475.69;2056085;28;20703;-68
2023/10/11 02:00:32;;;;;;;2.20;0.90;;;;;;;12.23;100.00;102459.06;2057386;28;20206;-68
2023/10/11 02:01:39;;;;;;;0.97;0.60;;;;;;;12.20;100.00;102465.44;2057033;28;20609;-68
2023/10/11 02:02:47;;;;;;;1.83;0.93;;;;;;;12.22;100.00;102476.94;2057290;28;20191;-68
2023/10/11 02:03:54;;;;;;;2.10;1.20;;;;;;;12.19;100.00;102477.75;2057224;28;20955;-68
2023/10/11 02:04:59;;;;;;;2.60;1.00;;;;;;;12.20;100.00;102487.69;2057552;28;20967;-68
2023/10/11 02:06:04;;;;;;;2.27;1.00;;;;;;;11.77;100.00;102424.97;2057178;28;20962;-68
2023/10/11 02:07:05;;;;;;;2.50;0.87;;;;;;;12.07;100.00;102478.94;2057443;28;20438;-68
2023/10/11 02:08:16;;;;;;;2.77;0.90;;;;;;;12.08;100.00;102479.72;2064622;28;20433;-68
2023/10/11 02:09:21;;;;;;;3.33;0.90;;;;;;;12.04;100.00;102485.28;2061209;28;20165;-68
2023/10/11 02:10:27;;;;;;;2.67;1.10;;;;;;;11.95;100.00;102481.34;2050013;28;20441;-68
2023/10/11 02:11:31;;;;;;;3.30;0.80;;;;;;;11.92;100.00;102485.69;2057117;28;20518;-68
2023/10/11 02:12:31;;;;;;;2.53;0.70;;;;;;;11.79;100.00;102483.72;2056617;28;20945;-68
2023/10/11 02:13:51;;;;;;;3.57;0.80;;;;;;;11.67;100.00;102487.66;2057738;28;20484;-68
2023/10/11 02:14:51;;;;;;;3.30;0.80;;;;;;;11.59;100.00;102494.38;2049567;28;20187;-68
2023/10/11 02:15:52;;;;;;;2.70;1.10;;;;;;;11.55;100.00;102488.03;2057686;28;20431;-68
2023/10/11 02:16:53;;;;;;;5.63;1.23;;;;;;;11.59;100.00;102491.59;2057303;28;20204;-68
2023/10/11 02:17:55;;;;;;;4.20;1.27;;;;;;;11.67;100.00;102492.41;2057302;28;20218;-68
2023/10/11 02:18:58;;;;;;;2.30;1.00;;;;;;;11.64;100.00;102501.56;2056543;28;20814;-68
2023/10/11 02:20:00;;;;;;;3.90;0.90;;;;;;;11.60;100.00;102490.44;2057077;28;20509;-68
2023/10/11 02:21:06;;;;;;;2.27;1.20;;;;;;;11.63;100.00;102492.41;2057127;28;20445;-68
2023/10/11 02:22:10;;;;;;;2.07;1.13;;;;;;;11.64;100.00;102488.44;2056514;28;20800;-68
2023/10/11 02:23:16;;;;;;;1.63;0.80;;;;;;;11.61;100.00;102483.69;2056959;28;20480;-68
2023/10/11 02:24:17;;;;;;;2.07;0.90;;;;;;;11.58;100.00;102480.88;2057173;28;20498;-68
2023/10/11 02:25:19;;;;;;;1.60;1.00;;;;;;;11.68;100.00;102497.56;2056922;28;20422;-68
2023/10/11 02:26:28;;;;;;;3.03;0.87;;;;;;;11.69;100.00;102493.59;2057024;28;20211;-68
2023/10/11 02:27:32;;;;;;;1.80;0.90;;;;;;;11.69;100.00;102498.38;2057236;28;20391;-67
2023/10/11 02:28:32;;;;;;;2.43;1.00;;;;;;;11.34;100.00;102442.75;2057637;28;20421;-68
2023/10/11 02:29:35;;;;;;;3.40;1.30;;;;;;;11.66;100.00;102502.75;2056255;28;20438;-68
2023/10/11 02:30:38;;;;;;;3.20;1.10;;;;;;;11.36;100.00;102448.69;2057253;28;20664;-68
2023/10/11 02:31:39;;;;;;;4.00;1.00;;;;;;;11.63;100.00;102486.84;2057133;28;20558;-68
2023/10/11 02:32:43;;;;;;;2.37;1.10;;;;;;;11.63;100.00;102495.19;2055870;28;20650;-68
2023/10/11 02:33:43;;;;;;;1.97;1.03;;;;;;;11.61;100.00;102488.44;2057343;28;20183;-68
2023/10/11 02:34:49;;;;;;;2.80;0.90;;;;;;;11.61;100.00;102489.25;2057013;28;20532;-68
2023/10/11 02:35:55;;;;;;;3.13;0.80;;;;;;;11.53;100.00;102476.50;2057293;28;20162;-68
2023/10/11 02:37:03;;;;;;;1.33;0.87;;;;;;;11.57;100.00;102480.06;2056971;28;20785;-68
2023/10/11 02:38:09;;;;;;;2.93;1.03;;;;;;;11.56;100.00;102478.50;2057176;28;20790;-68
2023/10/11 02:39:17;;;;;;;3.50;1.17;;;;;;;11.52;100.00;102471.38;2056646;28;20410;-68
2023/10/11 02:40:22;;;;;;;2.57;0.80;;;;;;;11.41;100.00;102459.41;2056346;28;20509;-68
2023/10/11 02:41:26;;;;;;;1.57;0.80;;;;;;;11.49;100.00;102475.72;2057189;28;20399;-68
2023/10/11 02:42:26;;;;;;;2.07;0.90;;;;;;;11.48;100.00;102474.09;2057079;28;20457;-68
2023/10/11 02:43:27;;;;;;;2.70;0.97;;;;;;;11.46;100.00;102470.94;2056710;28;20430;-68
2023/10/11 02:44:27;;;;;;;5.47;1.00;;;;;;;11.48;100.00;102474.09;2057050;28;20649;-68
2023/10/11 02:45:28;;;;;;;1.67;1.00;;;;;;;11.49;100.00;102484.06;2057158;28;20187;-68
2023/10/11 02:46:33;;;;;;;1.67;0.90;;;;;;;11.47;100.00;102477.31;2057131;28;20230;-68
2023/10/11 02:47:37;;;;;;;1.63;1.00;;;;;;;11.45;100.00;102485.22;2056562;28;20473;-68
2023/10/11 02:48:37;;;;;;;2.50;1.17;;;;;;;11.44;100.00;102483.63;2056461;28;20473;-68
2023/10/11 02:49:38;;;;;;;2.07;1.00;;;;;;;11.44;100.00;102478.06;2056253;28;20506;-68
2023/10/11 02:50:38;;;;;;;4.20;1.07;;;;;;;11.43;100.00;102484.81;2057224;28;20594;-68
2023/10/11 02:51:51;;;;;;;3.13;0.80;;;;;;;11.41;100.00;102489.97;2056710;28;20236;-68
2023/10/11 02:52:59;;;;;;;2.23;1.03;;;;;;;11.39;100.00;102486.78;2056813;28;20606;-68
2023/10/11 02:54:04;;;;;;;1.53;1.00;;;;;;;10.97;100.00;102425.63;2056278;28;20396;-68
2023/10/11 02:55:20;;;;;;;1.53;0.90;;;;;;;11.31;100.00;102482.41;2056469;28;20879;-68
2023/10/11 02:56:24;;;;;;;2.93;0.90;;;;;;;11.36;100.00;102499.47;2056898;28;21122;-68
2023/10/11 02:57:25;;;;;;;2.30;1.03;;;;;;;11.30;100.00;102483.59;2062328;28;20536;-68
2023/10/11 02:58:27;;;;;;;7.30;1.20;;;;;;;11.35;100.00;102494.31;2057303;28;20431;-68
2023/10/11 02:59:28;;;;;;;5.00;1.07;;;;;;;11.38;100.00;102493.53;2055466;28;20509;-68
2023/10/11 03:00:31;;;;;;;1.93;1.07;;;;;;;11.39;100.00;102484.00;2056373;28;20473;-68
2023/10/11 03:01:32;;;;;;;1.67;0.70;;;;;;;11.40;100.00;102485.59;2054686;28;20198;-68
2023/10/11 03:02:38;;;;;;;4.73;1.50;;;;;;;11.40;100.00;102488.38;2056845;28;20452;-68
2023/10/11 03:03:39;;;;;;;2.50;1.30;;;;;;;11.39;100.00;102484.81;2056862;28;20182;-68
2023/10/11 03:04:39;;;;;;;2.03;0.83;;;;;;;10.92;100.00;102418.47;2056739;28;20446;-68
2023/10/11 03:05:40;;;;;;;6.17;1.13;;;;;;;11.38;100.00;102490.75;2056891;28;20182;-68
2023/10/11 03:06:47;;;;;;;1.60;0.80;;;;;;;11.36;100.00;102493.13;2056758;28;20718;-68
2023/10/11 03:07:47;;;;;;;6.00;0.80;;;;;;;11.33;100.00;102493.91;2057570;28;20399;-68
2023/10/11 03:08:51;;;;;;;1.13;0.60;;;;;;;11.32;100.00;102495.88;2056445;28;20926;-68
2023/10/11 03:09:54;;;;;;;5.00;1.10;;;;;;;10.89;100.00;102448.97;2056421;28;20190;-68
2023/10/11 03:10:57;;;;;;;1.03;0.73;;;;;;;11.25;100.00;102500.63;2056044;28;20454;-69
2023/10/11 03:12:05;;;;;;;5.40;1.20;;;;;;;11.25;100.00;102504.22;2056122;28;20858;-69
2023/10/11 03:13:05;;;;;;;2.00;0.90;;;;;;;11.22;100.00;102506.97;2056404;28;20446;-69
2023/10/11 03:14:06;;;;;;;2.20;1.00;;;;;;;11.24;100.00;102505.41;2056715;28;20450;-69
2023/10/11 03:15:09;;;;;;;1.03;0.70;;;;;;;11.24;100.00;102507.38;2056223;28;20190;-69
2023/10/11 03:16:17;;;;;;;4.10;0.80;;;;;;;11.20;100.00;102507.34;2056883;28;20187;-69
2023/10/11 03:17:20;;;;;;;2.90;1.00;;;;;;;11.20;100.00;102507.34;2056759;28;20443;-68
2023/10/11 03:18:25;;;;;;;3.20;1.10;;;;;;;11.21;100.00;102502.59;2056521;28;20430;-68
2023/10/11 03:19:26;;;;;;;3.50;0.90;;;;;;;11.20;100.00;102506.56;2055914;28;20410;-68
2023/10/11 03:20:30;;;;;;;2.90;0.93;;;;;;;11.17;100.00;102499.81;2056652;28;20765;-68
2023/10/11 03:21:33;;;;;;;4.10;0.90;;;;;;;11.16;100.00;102506.53;2057209;28;20734;-68
2023/10/11 03:22:35;;;;;;;2.07;1.00;;;;;;;11.16;100.00;102508.50;2049363;29;20426;-68
2023/10/11 03:23:45;;;;;;;1.37;0.80;;;;;;;11.15;100.00;102512.47;2054942;28;20503;-69
2023/10/11 03:24:53;;;;;;;3.73;1.10;;;;;;;11.09;100.00;102497.41;2056328;28;20445;-69
2023/10/11 03:25:55;;;;;;;1.10;0.67;;;;;;;11.14;100.00;102505.34;2056504;28;20473;-68
2023/10/11 03:26:59;;;;;;;3.93;1.20;;;;;;;11.13;100.00;102512.09;2056679;28;21001;-68
2023/10/11 03:28:00;;;;;;;2.33;1.13;;;;;;;11.13;100.00;102521.19;2056717;28;20499;-68
2023/10/11 03:29:05;;;;;;;1.23;0.90;;;;;;;11.06;100.00;102504.53;2056613;28;20453;-69
2023/10/11 03:30:12;;;;;;;2.23;0.93;;;;;;;11.11;100.00;102515.25;2056535;28;20575;-69
2023/10/11 03:31:14;;;;;;;3.63;1.20;;;;;;;11.11;100.00;102511.66;2056890;28;20827;-69
2023/10/11 03:32:14;;;;;;;1.80;1.07;;;;;;;11.04;100.00;102519.97;2064034;28;20454;-68
2023/10/11 03:33:17;;;;;;;3.13;1.30;;;;;;;11.01;100.00;102513.22;2063921;28;20305;-68
2023/10/11 03:34:19;;;;;;;1.57;0.80;;;;;;;10.94;100.00;102515.97;2049352;28;20194;-68
2023/10/11 03:35:20;;;;;;;1.70;0.80;;;;;;;10.90;100.00;102517.94;2056667;28;20422;-68
2023/10/11 03:36:28;;;;;;;1.63;0.97;;;;;;;10.88;100.00;102531.41;2056605;28;20444;-68
2023/10/11 03:37:28;;;;;;;3.57;1.20;;;;;;;10.87;100.00;102532.56;2056409;28;20683;-68
2023/10/11 03:38:32;;;;;;;1.87;0.97;;;;;;;10.84;100.00;102529.78;2056838;28;20823;-68
2023/10/11 03:40:54;;;;;;;2.57;1.03;;;;;;;10.77;100.00;102530.53;2056580;28;20860;-68
2023/10/11 03:42:07;;;;;;;3.80;1.63;;;;;;;10.70;100.00;102524.16;2056971;28;20458;-68
2023/10/11 03:43:16;;;;;;;3.03;1.17;;;;;;;10.69;100.00;102525.34;2056651;28;20450;-68
2023/10/11 03:44:20;;;;;;;2.27;1.30;;;;;;;10.61;100.00;102527.28;2056863;28;20508;-68
2023/10/11 03:45:27;;;;;;;1.00;0.67;;;;;;;10.59;100.00;102526.88;2056457;28;20446;-68
2023/10/11 03:46:28;;;;;;;4.13;1.10;;;;;;;10.58;100.00;102518.94;2056188;28;20493;-68
2023/10/11 03:47:31;;;;;;;2.17;1.20;;;;;;;10.22;100.00;102470.81;2056613;28;20436;-68
2023/10/11 03:48:43;;;;;;;4.40;1.30;;;;;;;10.54;100.00;102518.09;2056414;28;20438;-68
2023/10/11 03:49:53;;;;;;;7.87;1.63;;;;;;;10.53;100.00;102522.88;2055717;28;20474;-68
2023/10/11 03:50:55;;;;;;;4.63;1.40;;;;;;;10.52;100.00;102520.47;2056583;28;20446;-68
2023/10/11 03:51:55;;;;;;;3.00;1.17;;;;;;;10.56;100.00;102513.00;2056175;28;20865;-68
2023/10/11 03:53:06;;;;;;;4.57;1.40;;;;;;;10.54;100.00;102512.56;2056512;28;20928;-68
2023/10/11 03:54:07;;;;;;;1.57;0.80;;;;;;;11.67;100.00;102514.63;2056728;28;20229;-65
2023/10/11 03:55:10;;;;;;;1.77;1.10;;;;;;;13.06;100.00;102522.06;2055059;28;20450;-67
2023/10/11 03:56:11;;;;;;;1.23;0.70;;;;;;;13.94;100.00;102524.34;2053764;28;20191;-67
2023/10/11 03:57:11;;;;;;;1.30;0.70;;;;;;;14.77;100.00;102536.75;2054689;28;20483;-67
2023/10/11 03:58:32;;;;;;;2.53;0.80;;;;;;;14.87;100.00;102535.03;2055614;28;20221;-68
2023/10/11 03:59:38;;;;;;;1.17;0.90;;;;;;;14.65;100.00;102534.47;2054959;28;20171;-65
2023/10/11 04:00:46;;;;;;;1.87;0.80;;;;;;;14.84;100.00;102539.44;2057134;28;20886;-65
2023/10/11 04:01:49;;;;;;;2.03;1.20;;;;;;;14.82;100.00;102539.09;2055543;28;20430;-64
2023/10/11 04:02:57;;;;;;;2.20;1.10;;;;;;;14.88;100.00;102544.97;2056020;28;20485;-64
2023/10/11 04:03:57;;;;;;;1.67;1.00;;;;;;;14.95;100.00;102544.91;2055381;28;20534;-63
2023/10/11 04:04:58;;;;;;;2.77;0.97;;;;;;;15.29;100.00;102538.09;2055298;28;20437;-66
2023/10/11 04:05:59;;;;;;;2.00;1.00;;;;;;;15.96;100.00;102546.34;2054676;28;20194;-65
2023/10/11 04:07:04;;;;;;;1.10;0.73;;;;;;;16.45;100.00;102555.97;2053090;28;20194;-66
2023/10/11 04:08:05;;;;;;;1.70;1.00;;;;;;;16.70;100.00;102528.31;2055474;28;20545;-67
2023/10/11 04:10:34;;;;;;;4.90;1.00;;;;;;;17.44;100.00;102535.22;2054844;28;20974;-66
2023/10/11 04:11:55;;;;;;;4.50;1.00;;;;;;;17.60;100.00;102526.84;2054771;28;20448;-67
2023/10/11 04:12:56;;;;;;;3.90;1.40;;;;;;;17.82;100.00;102523.13;2055179;28;20596;-67
2023/10/11 04:13:58;;;;;;;3.83;1.10;;;;;;;17.78;100.00;102486.72;2055290;28;20442;-67
2023/10/11 04:15:06;;;;;;;3.10;1.10;;;;;;;18.11;100.00;102512.78;2055020;28;20202;-67
2023/10/11 04:16:07;;;;;;;3.97;1.20;;;;;;;18.14;100.00;102493.03;2058955;28;20488;-67
2023/10/11 04:17:26;;;;;;;3.07;0.97;;;;;;;18.28;100.00;102511.56;2053937;28;20457;-67
2023/10/11 04:18:33;;;;;;;3.37;1.50;;;;;;;18.38;100.00;102518.16;2055215;28;20438;-65
2023/10/11 04:19:35;;;;;;;4.17;1.37;;;;;;;18.40;100.00;102515.66;2053595;28;21027;-66
2023/10/11 04:20:40;;;;;;;4.40;1.17;;;;;;;18.47;100.00;102521.13;2054557;28;20605;-66
2023/10/11 04:21:54;;;;;;;3.77;1.30;;;;;;;18.49;100.00;102516.63;2060294;28;20847;-66
2023/10/11 04:23:15;;;;;;;4.60;1.20;;;;;;;18.52;100.00;102510.13;2054265;28;20495;-66
2023/10/11 04:24:19;;;;;;;1.80;1.00;;;;;;;18.53;100.00;102514.50;2054496;28;20457;-65
2023/10/11 04:25:22;;;;;;;5.53;1.17;;;;;;;18.50;100.00;102514.59;2055226;28;20466;-65
2023/10/11 04:26:33;;;;;;;4.07;1.00;;;;;;;18.32;100.00;102472.16;2057249;28;20489;-65
2023/10/11 04:28:41;;;;;;;2.80;1.17;;;;;;;18.52;98.42;102512.16;2055211;28;20939;-65
2023/10/11 04:29:42;;;;;;;2.53;1.10;;;;;;;18.55;97.11;102517.69;2055313;28;20221;-65
2023/10/11 04:30:44;;;;;;;3.10;1.03;;;;;;;18.57;95.60;102508.81;2062134;28;20935;-66
2023/10/11 04:33:01;;;;;;;7.27;1.00;;;;;;;18.02;77.32;102512.59;2054629;28;20899;-71
2023/10/11 04:34:11;;;;;;;3.20;1.20;;;;;;;17.69;76.23;102516.63;2055427;28;20422;-69
2023/10/11 04:35:25;;;;;;;3.17;1.40;;;;;;;17.31;77.25;102515.47;2054987;28;20177;-68
2023/10/11 04:36:28;;;;;;;3.27;1.37;;;;;;;16.91;78.84;102523.06;2054858;28;20464;-68
2023/10/11 04:37:30;;;;;;;3.87;1.50;;;;;;;16.59;80.56;102520.09;2053898;28;20549;-65
2023/10/11 04:38:33;;;;;;;2.30;1.50;;;;;;;16.20;81.76;102508.81;2060014;28;20467;-65
2023/10/11 04:39:34;;;;;;;3.87;2.13;;;;;;;15.96;82.94;102510.00;2057003;28;20578;-65
2023/10/11 04:40:38;;;;;;;5.40;1.73;;;;;;;15.58;84.66;102497.41;2057506;28;20442;-67
2023/10/11 04:41:47;;;;;;;4.63;1.87;;;;;;;15.42;85.91;102510.44;2055665;28;20516;-67
2023/10/11 04:43:04;;;;;;;7.20;2.33;;;;;;;15.12;88.31;102502.03;2050789;28;20439;-67
2023/10/11 04:44:13;;;;;;;6.30;2.50;;;;;;;14.96;89.95;102524.16;2043904;28;20864;-67
2023/10/11 04:45:21;;;;;;;7.63;2.83;;;;;;;14.53;92.16;102495.13;2051673;28;20972;-67
2023/10/11 04:46:27;;;;;;;10.03;2.90;;;;;;;14.49;93.85;102539.03;2055104;28;20580;-67
2023/10/11 04:47:50;;;;;;;4.40;2.27;;;;;;;14.27;95.39;102537.63;2049443;28;20415;-67
2023/10/11 04:48:48;;;;;;;5.47;2.13;;;;;;;14.01;97.16;102536.22;2043539;28;20449;-67
2023/10/11 04:49:53;;;;;;;6.57;1.97;;;;;;;13.82;98.87;102547.91;2051737;28;20515;-67
2023/10/11 04:51:04;;;;;;;6.50;2.00;;;;;;;13.62;100.00;102532.13;2057302;28;20434;-67
2023/10/11 04:52:13;;;;;;;2.80;1.57;;;;;;;13.31;100.00;102517.16;2057581;28;20414;-67
2023/10/11 04:53:18;;;;;;;6.93;2.10;;;;;;;13.30;100.00;102539.84;2038843;28;20436;-67
2023/10/11 04:54:19;;;;;;;9.30;2.53;;;;;;;13.15;100.00;102553.03;2035840;28;20444;-67
2023/10/11 04:55:32;;;;;;;9.30;2.83;;;;;;;13.03;100.00;102555.47;2041674;29;20440;-67
2023/10/11 04:59:09;;;;;;;3.43;2.40;;;;;;;12.32;100.00;102571.47;2046977;28;22011;-67
2023/10/11 05:00:11;;;;;;;4.57;2.07;;;;;;;12.11;100.00;102549.22;2051608;28;20438;-66
2023/10/11 05:01:12;;;;;;;3.73;2.00;;;;;;;12.03;100.00;102555.97;2055386;28;20979;-67
2023/10/11 05:02:33;;;;;;;4.40;2.40;;;;;;;12.05;100.00;102569.47;2049807;28;20833;-67
2023/10/11 05:03:38;;;;;;;3.93;2.50;;;;;;;11.96;100.00;102582.94;2034072;28;20607;-67
2023/10/11 05:04:44;;;;;;;7.10;3.37;;;;;;;11.88;100.00;102557.13;2041593;28;20517;-67